sensor_id;sensor_type;location;lat;lon;timestamp;temperature;humidity
19588;DHT22;9940;47.252;8.696;2023-03-14T00:06:40;11.10;99.90
19588;DHT22;9940;47.252;8.696;2023-03-14T00:09:07;11.10;99.90
19588;DHT22;9940;47.252;8.696;2023-03-14T00:11:35;11.20;99.90
19588;DHT22;9940;47.252;8.696;2023-03-14T00:14:01;11.20;99.90
19588;DHT22;9940;47.252;8.696;2023-03-14T00:16:28;11.30;99.90
19588;DHT22;9940;47.252;8.696;2023-03-14T00:18:53;11.30;99.90
19588;DHT22;9940;47.252;8.696;2023-03-14T00:21:19;11.30;99.90
19588;DHT22;9940;47.252;8.696;2023-03-14T00:23:45;11.30;99.90
19588;DHT22;9940;47.252;8.696;2023-03-14T00:26:15;11.30;99.90
19588;DHT22;9940;47.252;8.696;2023-03-14T00:28:42;11.40;99.90
19588;DHT22;9940;47.252;8.696;2023-03-14T00:31:13;11.30;99.90
19588;DHT22;9940;47.252;8.696;2023-03-14T00:33:39;11.30;99.90
19588;DHT22;9940;47.252;8.696;2023-03-14T00:36:16;11.20;99.90
19588;DHT22;9940;47.252;8.696;2023-03-14T00:38:44;11.10;99.90
19588;DHT22;9940;47.252;8.696;2023-03-14T00:41:15;11.00;99.90
19588;DHT22;9940;47.252;8.696;2023-03-14T00:43:44;10.90;99.90
19588;DHT22;9940;47.252;8.696;2023-03-14T00:46:10;10.80;99.90
19588;DHT22;9940;47.252;8.696;2023-03-14T00:48:38;10.60;99.90
19588;DHT22;9940;47.252;8.696;2023-03-14T00:51:10;10.40;99.90
19588;DHT22;9940;47.252;8.696;2023-03-14T00:53:39;10.20;99.90
19588;DHT22;9940;47.252;8.696;2023-03-14T02:19:09;9.90;99.90
19588;DHT22;9940;47.252;8.696;2023-03-14T02:21:57;9.90;99.90
19588;DHT22;9940;47.252;8.696;2023-03-14T02:27:13;10.00;99.90
19588;DHT22;9940;47.252;8.696;2023-03-14T02:29:55;10.00;99.90
19588;DHT22;9940;47.252;8.696;2023-03-14T02:32:24;10.10;99.90
19588;DHT22;9940;47.252;8.696;2023-03-14T02:34:55;10.10;99.90
19588;DHT22;9940;47.252;8.696;2023-03-14T02:37:28;10.20;99.90
19588;DHT22;9940;47.252;8.696;2023-03-14T02:39:58;10.20;99.90
19588;DHT22;9940;47.252;8.696;2023-03-14T02:42:25;10.20;99.90
19588;DHT22;9940;47.252;8.696;2023-03-14T02:47:36;10.30;99.90
19588;DHT22;9940;47.252;8.696;2023-03-14T02:50:20;10.30;99.90
19588;DHT22;9940;47.252;8.696;2023-03-14T02:52:47;10.30;99.90
19588;DHT22;9940;47.252;8.696;2023-03-14T02:55:13;10.30;99.90
19588;DHT22;9940;47.252;8.696;2023-03-14T02:57:41;10.30;99.90
19588;DHT22;9940;47.252;8.696;2023-03-14T03:00:09;10.30;99.90
19588;DHT22;9940;47.252;8.696;2023-03-14T03:02:35;10.30;99.90
19588;DHT22;9940;47.252;8.696;2023-03-14T03:05:01;10.30;99.90
19588;DHT22;9940;47.252;8.696;2023-03-14T03:07:29;10.40;99.90
19588;DHT22;9940;47.252;8.696;2023-03-14T03:09:55;10.30;99.90
19588;DHT22;9940;47.252;8.696;2023-03-14T03:12:22;10.30;99.90
19588;DHT22;9940;47.252;8.696;2023-03-14T03:14:53;10.20;99.90
19588;DHT22;9940;47.252;8.696;2023-03-14T03:17:18;10.20;99.90
19588;DHT22;9940;47.252;8.696;2023-03-14T03:19:44;10.10;99.90
19588;DHT22;9940;47.252;8.696;2023-03-14T03:22:12;10.10;99.90
19588;DHT22;9940;47.252;8.696;2023-03-14T03:24:37;10.10;99.90
19588;DHT22;9940;47.252;8.696;2023-03-14T03:27:05;10.10;99.90
19588;DHT22;9940;47.252;8.696;2023-03-14T03:29:33;10.10;99.90
19588;DHT22;9940;47.252;8.696;2023-03-14T03:31:59;10.10;99.90
19588;DHT22;9940;47.252;8.696;2023-03-14T03:34:24;10.10;99.90
19588;DHT22;9940;47.252;8.696;2023-03-14T03:36:50;10.10;99.90
19588;DHT22;9940;47.252;8.696;2023-03-14T03:39:16;10.10;99.90
19588;DHT22;9940;47.252;8.696;2023-03-14T03:41:41;10.10;99.90
19588;DHT22;9940;47.252;8.696;2023-03-14T03:44:07;10.10;99.90
19588;DHT22;9940;47.252;8.696;2023-03-14T03:46:35;10.10;99.90
19588;DHT22;9940;47.252;8.696;2023-03-14T03:49:00;10.10;99.90
19588;DHT22;9940;47.252;8.696;2023-03-14T03:51:26;10.00;99.90
19588;DHT22;9940;47.252;8.696;2023-03-14T03:53:52;10.00;99.90
19588;DHT22;9940;47.252;8.696;2023-03-14T03:56:20;10.00;99.90
19588;DHT22;9940;47.252;8.696;2023-03-14T03:58:50;10.00;99.90
19588;DHT22;9940;47.252;8.696;2023-03-14T04:01:16;10.00;99.90
19588;DHT22;9940;47.252;8.696;2023-03-14T04:03:41;10.00;99.90
19588;DHT22;9940;47.252;8.696;2023-03-14T04:06:12;10.00;99.90
19588;DHT22;9940;47.252;8.696;2023-03-14T04:08:42;10.00;99.90
19588;DHT22;9940;47.252;8.696;2023-03-14T04:11:08;10.00;99.90
19588;DHT22;9940;47.252;8.696;2023-03-14T04:13:37;10.00;99.90
19588;DHT22;9940;47.252;8.696;2023-03-14T04:16:03;10.00;99.90
19588;DHT22;9940;47.252;8.696;2023-03-14T04:18:28;10.10;99.90
19588;DHT22;9940;47.252;8.696;2023-03-14T04:20:56;10.10;99.90
19588;DHT22;9940;47.252;8.696;2023-03-14T04:23:23;10.10;99.90
19588;DHT22;9940;47.252;8.696;2023-03-14T04:25:50;10.00;99.90
19588;DHT22;9940;47.252;8.696;2023-03-14T04:31:38;10.00;99.90
19588;DHT22;9940;47.252;8.696;2023-03-14T04:34:03;10.00;99.90
19588;DHT22;9940;47.252;8.696;2023-03-14T04:36:29;10.00;99.90
19588;DHT22;9940;47.252;8.696;2023-03-14T04:38:57;10.00;99.90
19588;DHT22;9940;47.252;8.696;2023-03-14T04:41:22;10.00;99.90
19588;DHT22;9940;47.252;8.696;2023-03-14T04:43:50;10.00;99.90
19588;DHT22;9940;47.252;8.696;2023-03-14T04:46:18;10.00;99.90
19588;DHT22;9940;47.252;8.696;2023-03-14T04:48:43;10.00;99.90
19588;DHT22;9940;47.252;8.696;2023-03-14T04:51:11;10.00;99.90
19588;DHT22;9940;47.252;8.696;2023-03-14T04:53:37;10.00;99.90
19588;DHT22;9940;47.252;8.696;2023-03-14T04:56:05;10.00;99.90
19588;DHT22;9940;47.252;8.696;2023-03-14T04:58:31;9.90;99.90
19588;DHT22;9940;47.252;8.696;2023-03-14T05:01:02;9.90;99.90
19588;DHT22;9940;47.252;8.696;2023-03-14T05:03:28;9.80;99.90
19588;DHT22;9940;47.252;8.696;2023-03-14T05:05:54;9.80;99.90
19588;DHT22;9940;47.252;8.696;2023-03-14T05:08:20;9.70;99.90
19588;DHT22;9940;47.252;8.696;2023-03-14T05:10:54;9.70;99.90
19588;DHT22;9940;47.252;8.696;2023-03-14T05:13:21;9.60;99.90
19588;DHT22;9940;47.252;8.696;2023-03-14T05:15:50;9.60;99.90
19588;DHT22;9940;47.252;8.696;2023-03-14T05:18:20;9.60;99.90
19588;DHT22;9940;47.252;8.696;2023-03-14T05:20:46;9.60;99.90
19588;DHT22;9940;47.252;8.696;2023-03-14T05:23:14;9.60;99.90
19588;DHT22;9940;47.252;8.696;2023-03-14T05:25:39;9.50;99.90
19588;DHT22;9940;47.252;8.696;2023-03-14T05:28:09;9.50;99.90
19588;DHT22;9940;47.252;8.696;2023-03-14T05:30:35;9.50;99.90
19588;DHT22;9940;47.252;8.696;2023-03-14T05:33:01;9.50;99.90
19588;DHT22;9940;47.252;8.696;2023-03-14T05:35:26;9.50;99.90
19588;DHT22;9940;47.252;8.696;2023-03-14T05:37:52;9.40;99.90
19588;DHT22;9940;47.252;8.696;2023-03-14T05:40:20;9.40;99.90
19588;DHT22;9940;47.252;8.696;2023-03-14T05:42:45;9.40;99.90
19588;DHT22;9940;47.252;8.696;2023-03-14T05:45:11;9.30;99.90
19588;DHT22;9940;47.252;8.696;2023-03-14T05:47:39;9.30;99.90
19588;DHT22;9940;47.252;8.696;2023-03-14T05:50:07;9.30;99.90
19588;DHT22;9940;47.252;8.696;2023-03-14T05:52:33;9.30;99.90
19588;DHT22;9940;47.252;8.696;2023-03-14T05:55:01;9.30;99.90
19588;DHT22;9940;47.252;8.696;2023-03-14T05:57:32;9.30;99.90
19588;DHT22;9940;47.252;8.696;2023-03-14T06:00:00;9.30;99.90
19588;DHT22;9940;47.252;8.696;2023-03-14T06:02:27;9.30;99.90
19588;DHT22;9940;47.252;8.696;2023-03-14T06:04:53;9.30;99.90
19588;DHT22;9940;47.252;8.696;2023-03-14T06:07:19;9.30;99.90
19588;DHT22;9940;47.252;8.696;2023-03-14T06:09:44;9.30;99.90
19588;DHT22;9940;47.252;8.696;2023-03-14T06:12:10;9.30;99.90
19588;DHT22;9940;47.252;8.696;2023-03-14T06:14:40;9.30;99.90
19588;DHT22;9940;47.252;8.696;2023-03-14T06:17:06;9.30;99.90
19588;DHT22;9940;47.252;8.696;2023-03-14T06:19:31;9.30;99.90
19588;DHT22;9940;47.252;8.696;2023-03-14T06:21:59;9.20;99.90
19588;DHT22;9940;47.252;8.696;2023-03-14T06:24:27;9.20;99.90
19588;DHT22;9940;47.252;8.696;2023-03-14T06:26:53;9.20;99.90
19588;DHT22;9940;47.252;8.696;2023-03-14T06:29:22;9.30;99.90
19588;DHT22;9940;47.252;8.696;2023-03-14T06:31:47;9.30;99.90
19588;DHT22;9940;47.252;8.696;2023-03-14T06:34:13;9.30;99.90
19588;DHT22;9940;47.252;8.696;2023-03-14T06:36:41;9.30;99.90
19588;DHT22;9940;47.252;8.696;2023-03-14T06:39:07;9.30;99.90
19588;DHT22;9940;47.252;8.696;2023-03-14T06:41:32;9.30;99.90
19588;DHT22;9940;47.252;8.696;2023-03-14T06:43:58;9.20;99.90
19588;DHT22;9940;47.252;8.696;2023-03-14T06:46:28;9.20;99.90
19588;DHT22;9940;47.252;8.696;2023-03-14T06:48:54;9.20;99.90
19588;DHT22;9940;47.252;8.696;2023-03-14T06:51:19;9.20;99.90
19588;DHT22;9940;47.252;8.696;2023-03-14T06:53:45;9.20;99.90
19588;DHT22;9940;47.252;8.696;2023-03-14T06:56:10;9.20;99.90
19588;DHT22;9940;47.252;8.696;2023-03-14T06:58:36;9.20;99.90
19588;DHT22;9940;47.252;8.696;2023-03-14T07:01:02;9.20;99.90
19588;DHT22;9940;47.252;8.696;2023-03-14T07:03:28;9.20;99.90
19588;DHT22;9940;47.252;8.696;2023-03-14T07:05:53;9.20;99.90
19588;DHT22;9940;47.252;8.696;2023-03-14T08:36:36;11.70;99.90
19588;DHT22;9940;47.252;8.696;2023-03-14T08:39:02;11.60;99.90
19588;DHT22;9940;47.252;8.696;2023-03-14T08:41:31;11.50;99.90
19588;DHT22;9940;47.252;8.696;2023-03-14T08:44:02;11.50;99.90
19588;DHT22;9940;47.252;8.696;2023-03-14T08:46:30;11.50;99.90
19588;DHT22;9940;47.252;8.696;2023-03-14T08:48:56;11.50;99.90
19588;DHT22;9940;47.252;8.696;2023-03-14T08:51:21;11.60;99.90
19588;DHT22;9940;47.252;8.696;2023-03-14T08:53:47;11.60;99.90
19588;DHT22;9940;47.252;8.696;2023-03-14T08:56:12;11.60;99.90
19588;DHT22;9940;47.252;8.696;2023-03-14T08:58:38;11.50;99.90
19588;DHT22;9940;47.252;8.696;2023-03-14T09:01:09;11.60;99.90
19588;DHT22;9940;47.252;8.696;2023-03-14T09:03:35;11.60;99.90
19588;DHT22;9940;47.252;8.696;2023-03-14T09:06:08;11.80;99.90
19588;DHT22;9940;47.252;8.696;2023-03-14T09:08:37;11.90;99.90
19588;DHT22;9940;47.252;8.696;2023-03-14T09:11:03;12.10;99.90
19588;DHT22;9940;47.252;8.696;2023-03-14T09:13:31;12.20;99.90
19588;DHT22;9940;47.252;8.696;2023-03-14T09:15:58;12.40;99.90
19588;DHT22;9940;47.252;8.696;2023-03-14T09:18:24;12.40;99.90
19588;DHT22;9940;47.252;8.696;2023-03-14T09:20:52;12.50;99.90
19588;DHT22;9940;47.252;8.696;2023-03-14T09:23:18;12.40;99.90
19588;DHT22;9940;47.252;8.696;2023-03-14T09:25:43;12.30;99.90
19588;DHT22;9940;47.252;8.696;2023-03-14T09:28:09;12.30;99.90
19588;DHT22;9940;47.252;8.696;2023-03-14T09:30:35;12.30;99.90
19588;DHT22;9940;47.252;8.696;2023-03-14T09:33:00;12.30;99.90
19588;DHT22;9940;47.252;8.696;2023-03-14T09:35:26;12.30;99.90
19588;DHT22;9940;47.252;8.696;2023-03-14T09:37:54;12.30;99.90
19588;DHT22;9940;47.252;8.696;2023-03-14T09:40:22;12.30;99.90
19588;DHT22;9940;47.252;8.696;2023-03-14T09:42:54;12.30;99.90
19588;DHT22;9940;47.252;8.696;2023-03-14T09:47:53;12.20;99.40
19588;DHT22;9940;47.252;8.696;2023-03-14T09:50:24;12.20;99.20
19588;DHT22;9940;47.252;8.696;2023-03-14T09:52:56;12.20;99.10
19588;DHT22;9940;47.252;8.696;2023-03-14T09:55:24;12.30;98.80
19588;DHT22;9940;47.252;8.696;2023-03-14T09:57:56;12.40;98.10
19588;DHT22;9940;47.252;8.696;2023-03-14T10:00:26;12.50;97.60
19588;DHT22;9940;47.252;8.696;2023-03-14T10:05:23;12.60;97.00
19588;DHT22;9940;47.252;8.696;2023-03-14T10:07:52;12.60;96.70
19588;DHT22;9940;47.252;8.696;2023-03-14T10:10:23;12.70;96.10
19588;DHT22;9940;47.252;8.696;2023-03-14T10:15:40;12.70;95.50
19588;DHT22;9940;47.252;8.696;2023-03-14T10:18:11;12.60;95.50
19588;DHT22;9940;47.252;8.696;2023-03-14T10:20:43;12.70;95.60
19588;DHT22;9940;47.252;8.696;2023-03-14T10:25:39;12.70;95.80
19588;DHT22;9940;47.252;8.696;2023-03-14T10:28:24;12.80;95.70
19588;DHT22;9940;47.252;8.696;2023-03-14T10:30:50;12.80;95.30
19588;DHT22;9940;47.252;8.696;2023-03-14T10:35:54;12.80;95.20
19588;DHT22;9940;47.252;8.696;2023-03-14T10:38:24;12.70;95.30
19588;DHT22;9940;47.252;8.696;2023-03-14T10:40:54;12.60;95.70
19588;DHT22;9940;47.252;8.696;2023-03-14T10:43:32;12.50;95.90
19588;DHT22;9940;47.252;8.696;2023-03-14T10:46:23;12.50;95.90
19588;DHT22;9940;47.252;8.696;2023-03-14T10:48:47;12.40;96.30
19588;DHT22;9940;47.252;8.696;2023-03-14T10:51:23;12.40;96.60
19588;DHT22;9940;47.252;8.696;2023-03-14T10:56:25;12.60;96.80
19588;DHT22;9940;47.252;8.696;2023-03-14T10:58:54;12.50;96.60
19588;DHT22;9940;47.252;8.696;2023-03-14T11:07:16;12.10;98.80
19588;DHT22;9940;47.252;8.696;2023-03-14T11:10:08;12.00;99.40
19588;DHT22;9940;47.252;8.696;2023-03-14T11:15:35;11.80;99.90
19588;DHT22;9940;47.252;8.696;2023-03-14T11:26:59;11.10;99.90
19588;DHT22;9940;47.252;8.696;2023-03-14T11:29:40;11.00;99.90
19588;DHT22;9940;47.252;8.696;2023-03-14T11:32:36;10.90;99.90
19588;DHT22;9940;47.252;8.696;2023-03-14T11:35:13;10.80;99.90
19588;DHT22;9940;47.252;8.696;2023-03-14T11:42:58;10.30;99.90
19588;DHT22;9940;47.252;8.696;2023-03-14T11:45:30;10.00;99.90
19588;DHT22;9940;47.252;8.696;2023-03-14T11:48:17;9.80;99.90
19588;DHT22;9940;47.252;8.696;2023-03-14T11:50:50;9.60;99.90
19588;DHT22;9940;47.252;8.696;2023-03-14T11:56:27;9.30;99.90
19588;DHT22;9940;47.252;8.696;2023-03-14T11:59:03;9.20;99.90
19588;DHT22;9940;47.252;8.696;2023-03-14T12:06:52;8.80;99.90
19588;DHT22;9940;47.252;8.696;2023-03-14T12:09:20;8.60;99.90
19588;DHT22;9940;47.252;8.696;2023-03-14T12:12:10;8.50;99.90
19588;DHT22;9940;47.252;8.696;2023-03-14T12:14:45;8.40;99.90
19588;DHT22;9940;47.252;8.696;2023-03-14T12:17:20;8.30;99.90
19588;DHT22;9940;47.252;8.696;2023-03-14T12:20:12;8.20;99.90
19588;DHT22;9940;47.252;8.696;2023-03-14T12:25:19;8.10;99.90
19588;DHT22;9940;47.252;8.696;2023-03-14T12:30:40;8.20;99.90
19588;DHT22;9940;47.252;8.696;2023-03-14T12:35:48;8.30;99.90
19588;DHT22;9940;47.252;8.696;2023-03-14T12:43:33;8.60;99.90
19588;DHT22;9940;47.252;8.696;2023-03-14T12:49:09;9.00;99.90
19588;DHT22;9940;47.252;8.696;2023-03-14T12:59:50;9.50;99.90
19588;DHT22;9940;47.252;8.696;2023-03-14T13:02:21;9.60;99.90
19588;DHT22;9940;47.252;8.696;2023-03-14T13:08:01;9.80;99.90
19588;DHT22;9940;47.252;8.696;2023-03-14T13:10:30;9.80;99.90
19588;DHT22;9940;47.252;8.696;2023-03-14T13:15:34;10.00;99.90
19588;DHT22;9940;47.252;8.696;2023-03-14T13:18:27;10.00;99.40
19588;DHT22;9940;47.252;8.696;2023-03-14T13:20:53;10.10;99.40
19588;DHT22;9940;47.252;8.696;2023-03-14T13:23:23;10.10;98.90
19588;DHT22;9940;47.252;8.696;2023-03-14T13:25:50;10.10;98.60
19588;DHT22;9940;47.252;8.696;2023-03-14T13:28:18;10.10;98.50
19588;DHT22;9940;47.252;8.696;2023-03-14T13:30:47;10.10;98.40
19588;DHT22;9940;47.252;8.696;2023-03-14T13:33:20;10.10;97.90
19588;DHT22;9940;47.252;8.696;2023-03-14T13:35:58;10.10;97.80
19588;DHT22;9940;47.252;8.696;2023-03-14T13:38:26;10.20;97.40
19588;DHT22;9940;47.252;8.696;2023-03-14T13:40:59;10.30;97.10
19588;DHT22;9940;47.252;8.696;2023-03-14T13:46:17;10.60;96.40
19588;DHT22;9940;47.252;8.696;2023-03-14T13:48:57;10.70;95.80
19588;DHT22;9940;47.252;8.696;2023-03-14T13:51:24;10.70;95.30
19588;DHT22;9940;47.252;8.696;2023-03-14T13:53:54;10.60;95.30
19588;DHT22;9940;47.252;8.696;2023-03-14T13:56:27;10.40;95.40
19588;DHT22;9940;47.252;8.696;2023-03-14T13:58:59;10.20;95.50
19588;DHT22;9940;47.252;8.696;2023-03-14T14:01:32;10.10;95.90
19588;DHT22;9940;47.252;8.696;2023-03-14T14:04:07;10.00;96.20
19588;DHT22;9940;47.252;8.696;2023-03-14T14:06:45;9.90;96.70
19588;DHT22;9940;47.252;8.696;2023-03-14T14:09:23;9.80;96.90
19588;DHT22;9940;47.252;8.696;2023-03-14T14:16:50;10.00;96.60
19588;DHT22;9940;47.252;8.696;2023-03-14T14:19:18;10.20;95.90
19588;DHT22;9940;47.252;8.696;2023-03-14T14:21:45;10.20;95.20
19588;DHT22;9940;47.252;8.696;2023-03-14T14:24:15;10.20;95.10
19588;DHT22;9940;47.252;8.696;2023-03-14T14:26:47;10.10;95.10
19588;DHT22;9940;47.252;8.696;2023-03-14T14:29:25;10.10;95.50
19588;DHT22;9940;47.252;8.696;2023-03-14T14:32:13;10.10;95.60
19588;DHT22;9940;47.252;8.696;2023-03-14T14:37:29;10.00;95.70
19588;DHT22;9940;47.252;8.696;2023-03-14T14:40:05;10.00;95.30
19588;DHT22;9940;47.252;8.696;2023-03-14T14:42:32;10.00;94.60
19588;DHT22;9940;47.252;8.696;2023-03-14T14:44:58;10.00;94.00
19588;DHT22;9940;47.252;8.696;2023-03-14T14:47:27;10.10;93.20
19588;DHT22;9940;47.252;8.696;2023-03-14T14:49:58;10.10;92.80
19588;DHT22;9940;47.252;8.696;2023-03-14T14:52:43;10.10;92.60
19588;DHT22;9940;47.252;8.696;2023-03-14T14:55:19;10.00;92.40
19588;DHT22;9940;47.252;8.696;2023-03-14T14:57:53;9.90;92.50
19588;DHT22;9940;47.252;8.696;2023-03-14T15:00:26;9.90;92.70
19588;DHT22;9940;47.252;8.696;2023-03-14T15:02:55;9.80;92.80
19588;DHT22;9940;47.252;8.696;2023-03-14T15:05:26;9.80;92.80
19588;DHT22;9940;47.252;8.696;2023-03-14T15:07:52;9.80;92.70
19588;DHT22;9940;47.252;8.696;2023-03-14T15:10:20;9.80;92.50
19588;DHT22;9940;47.252;8.696;2023-03-14T15:12:49;9.80;92.40
19588;DHT22;9940;47.252;8.696;2023-03-14T15:15:15;9.80;92.50
19588;DHT22;9940;47.252;8.696;2023-03-14T15:17:41;9.80;92.70
19588;DHT22;9940;47.252;8.696;2023-03-14T15:20:12;9.80;92.80
19588;DHT22;9940;47.252;8.696;2023-03-14T15:22:41;9.80;92.90
19588;DHT22;9940;47.252;8.696;2023-03-14T15:25:07;9.80;93.00
19588;DHT22;9940;47.252;8.696;2023-03-14T15:27:33;9.80;93.10
19588;DHT22;9940;47.252;8.696;2023-03-14T15:29:59;9.80;93.00
19588;DHT22;9940;47.252;8.696;2023-03-14T15:32:25;9.80;92.70
19588;DHT22;9940;47.252;8.696;2023-03-14T15:34:55;9.90;92.40
19588;DHT22;9940;47.252;8.696;2023-03-14T15:37:22;10.00;92.00
19588;DHT22;9940;47.252;8.696;2023-03-14T15:39:47;10.00;91.70
19588;DHT22;9940;47.252;8.696;2023-03-14T15:42:13;10.10;91.00
19588;DHT22;9940;47.252;8.696;2023-03-14T15:44:39;10.10;90.70
19588;DHT22;9940;47.252;8.696;2023-03-14T15:47:05;10.10;90.40
19588;DHT22;9940;47.252;8.696;2023-03-14T15:49:31;10.10;90.10
19588;DHT22;9940;47.252;8.696;2023-03-14T15:51:59;10.10;90.00
19588;DHT22;9940;47.252;8.696;2023-03-14T15:54:25;10.10;90.20
19588;DHT22;9940;47.252;8.696;2023-03-14T15:56:56;10.40;89.80
19588;DHT22;9940;47.252;8.696;2023-03-14T15:59:22;10.70;88.40
19588;DHT22;9940;47.252;8.696;2023-03-14T16:01:48;10.70;87.40
19588;DHT22;9940;47.252;8.696;2023-03-14T16:04:16;10.70;87.10
19588;DHT22;9940;47.252;8.696;2023-03-14T16:06:45;10.70;87.70
19588;DHT22;9940;47.252;8.696;2023-03-14T16:09:12;10.70;88.10
19588;DHT22;9940;47.252;8.696;2023-03-14T16:11:38;10.70;88.30
19588;DHT22;9940;47.252;8.696;2023-03-14T16:14:06;10.60;88.60
19588;DHT22;9940;47.252;8.696;2023-03-14T16:16:32;10.50;88.80
19588;DHT22;9940;47.252;8.696;2023-03-14T16:18:58;10.40;88.90
19588;DHT22;9940;47.252;8.696;2023-03-14T16:21:23;10.30;89.10
19588;DHT22;9940;47.252;8.696;2023-03-14T16:23:49;10.20;89.40
19588;DHT22;9940;47.252;8.696;2023-03-14T16:26:19;10.20;89.60
19588;DHT22;9940;47.252;8.696;2023-03-14T16:31:30;10.00;90.30
19588;DHT22;9940;47.252;8.696;2023-03-14T16:34:00;9.90;90.60
19588;DHT22;9940;47.252;8.696;2023-03-14T16:36:30;9.80;90.70
19588;DHT22;9940;47.252;8.696;2023-03-14T16:38:55;9.70;90.80
19588;DHT22;9940;47.252;8.696;2023-03-14T16:41:21;9.60;90.90
19588;DHT22;9940;47.252;8.696;2023-03-14T16:43:47;9.50;91.00
19588;DHT22;9940;47.252;8.696;2023-03-14T16:46:19;9.40;91.20
19588;DHT22;9940;47.252;8.696;2023-03-14T16:48:50;9.40;91.40
19588;DHT22;9940;47.252;8.696;2023-03-14T16:51:19;9.40;91.70
19588;DHT22;9940;47.252;8.696;2023-03-14T16:53:45;9.30;92.00
19588;DHT22;9940;47.252;8.696;2023-03-14T16:56:11;9.30;92.30
19588;DHT22;9940;47.252;8.696;2023-03-14T16:58:37;9.20;92.60
19588;DHT22;9940;47.252;8.696;2023-03-14T17:01:07;9.20;93.40
19588;DHT22;9940;47.252;8.696;2023-03-14T17:03:41;9.10;94.20
19588;DHT22;9940;47.252;8.696;2023-03-14T17:06:10;9.00;94.80
19588;DHT22;9940;47.252;8.696;2023-03-14T17:08:36;8.90;95.20
19588;DHT22;9940;47.252;8.696;2023-03-14T17:11:01;8.80;95.90
19588;DHT22;9940;47.252;8.696;2023-03-14T17:13:27;8.80;96.60
19588;DHT22;9940;47.252;8.696;2023-03-14T17:15:57;8.80;97.20
19588;DHT22;9940;47.252;8.696;2023-03-14T17:18:24;8.80;97.70
19588;DHT22;9940;47.252;8.696;2023-03-14T17:20:55;8.80;98.20
19588;DHT22;9940;47.252;8.696;2023-03-14T17:23:22;8.80;98.80
19588;DHT22;9940;47.252;8.696;2023-03-14T17:25:53;8.70;99.20
19588;DHT22;9940;47.252;8.696;2023-03-14T17:28:20;8.70;99.80
19588;DHT22;9940;47.252;8.696;2023-03-14T17:30:49;8.60;99.90
19588;DHT22;9940;47.252;8.696;2023-03-14T17:33:15;8.40;99.90
19588;DHT22;9940;47.252;8.696;2023-03-14T17:35:43;8.30;99.90
19588;DHT22;9940;47.252;8.696;2023-03-14T17:38:09;8.30;99.90
19588;DHT22;9940;47.252;8.696;2023-03-14T17:40:35;8.20;99.90
19588;DHT22;9940;47.252;8.696;2023-03-14T17:43:01;8.20;99.90
19588;DHT22;9940;47.252;8.696;2023-03-14T17:45:26;8.20;99.90
19588;DHT22;9940;47.252;8.696;2023-03-14T17:47:52;8.10;99.90
19588;DHT22;9940;47.252;8.696;2023-03-14T17:50:18;8.10;99.90
19588;DHT22;9940;47.252;8.696;2023-03-14T17:52:45;8.00;99.90
19588;DHT22;9940;47.252;8.696;2023-03-14T17:55:11;7.90;99.90
19588;DHT22;9940;47.252;8.696;2023-03-14T17:57:39;7.70;99.90
19588;DHT22;9940;47.252;8.696;2023-03-14T18:00:12;7.60;99.90
19588;DHT22;9940;47.252;8.696;2023-03-14T18:02:38;7.50;99.90
19588;DHT22;9940;47.252;8.696;2023-03-14T18:05:09;7.50;99.90
19588;DHT22;9940;47.252;8.696;2023-03-14T18:07:36;7.50;99.90
19588;DHT22;9940;47.252;8.696;2023-03-14T18:10:04;7.60;99.90
19588;DHT22;9940;47.252;8.696;2023-03-14T18:12:30;7.60;99.90
19588;DHT22;9940;47.252;8.696;2023-03-14T18:14:58;7.60;99.90
19588;DHT22;9940;47.252;8.696;2023-03-14T18:17:26;7.60;99.90
19588;DHT22;9940;47.252;8.696;2023-03-14T18:19:54;7.60;99.90
19588;DHT22;9940;47.252;8.696;2023-03-14T18:22:22;7.60;99.90
19588;DHT22;9940;47.252;8.696;2023-03-14T18:24:49;7.60;99.90
19588;DHT22;9940;47.252;8.696;2023-03-14T18:27:14;7.70;99.90
19588;DHT22;9940;47.252;8.696;2023-03-14T18:29:45;7.70;99.90
19588;DHT22;9940;47.252;8.696;2023-03-14T18:32:13;7.70;99.90
19588;DHT22;9940;47.252;8.696;2023-03-14T18:34:40;7.70;99.90
19588;DHT22;9940;47.252;8.696;2023-03-14T18:37:09;7.70;99.90
19588;DHT22;9940;47.252;8.696;2023-03-14T18:39:35;7.70;99.90
19588;DHT22;9940;47.252;8.696;2023-03-14T18:42:00;7.70;99.90
19588;DHT22;9940;47.252;8.696;2023-03-14T18:44:26;7.70;99.90
19588;DHT22;9940;47.252;8.696;2023-03-14T18:46:54;7.70;99.90
19588;DHT22;9940;47.252;8.696;2023-03-14T18:49:20;7.70;99.90
19588;DHT22;9940;47.252;8.696;2023-03-14T18:51:46;7.70;99.90
19588;DHT22;9940;47.252;8.696;2023-03-14T18:54:11;7.70;99.90
19588;DHT22;9940;47.252;8.696;2023-03-14T18:56:39;7.70;99.90
19588;DHT22;9940;47.252;8.696;2023-03-14T18:59:06;7.70;99.90
19588;DHT22;9940;47.252;8.696;2023-03-14T19:01:33;7.70;99.90
19588;DHT22;9940;47.252;8.696;2023-03-14T19:03:59;7.70;99.90
19588;DHT22;9940;47.252;8.696;2023-03-14T19:06:27;7.60;99.90
19588;DHT22;9940;47.252;8.696;2023-03-14T19:08:52;7.70;99.90
19588;DHT22;9940;47.252;8.696;2023-03-14T19:11:18;7.70;99.90
19588;DHT22;9940;47.252;8.696;2023-03-14T19:13:48;7.70;99.90
19588;DHT22;9940;47.252;8.696;2023-03-14T19:16:14;7.70;99.90
19588;DHT22;9940;47.252;8.696;2023-03-14T19:18:40;7.70;99.90
19588;DHT22;9940;47.252;8.696;2023-03-14T19:21:13;7.70;99.90
19588;DHT22;9940;47.252;8.696;2023-03-14T19:23:41;7.60;99.90
19588;DHT22;9940;47.252;8.696;2023-03-14T19:26:07;7.60;99.90
19588;DHT22;9940;47.252;8.696;2023-03-14T19:28:34;7.60;99.90
19588;DHT22;9940;47.252;8.696;2023-03-14T19:31:03;7.60;99.90
19588;DHT22;9940;47.252;8.696;2023-03-14T19:33:30;7.60;99.90
19588;DHT22;9940;47.252;8.696;2023-03-14T19:35:58;7.60;99.90
19588;DHT22;9940;47.252;8.696;2023-03-14T19:38:24;7.70;99.90
19588;DHT22;9940;47.252;8.696;2023-03-14T19:40:55;7.70;99.90
19588;DHT22;9940;47.252;8.696;2023-03-14T19:43:21;7.70;99.90
19588;DHT22;9940;47.252;8.696;2023-03-14T19:45:47;7.70;99.90
19588;DHT22;9940;47.252;8.696;2023-03-14T19:48:12;7.70;99.90
19588;DHT22;9940;47.252;8.696;2023-03-14T19:50:41;7.80;99.90
19588;DHT22;9940;47.252;8.696;2023-03-14T19:53:09;7.80;99.90
19588;DHT22;9940;47.252;8.696;2023-03-14T19:55:37;7.80;99.90
19588;DHT22;9940;47.252;8.696;2023-03-14T19:58:03;7.80;99.90
19588;DHT22;9940;47.252;8.696;2023-03-14T20:00:30;7.70;99.90
19588;DHT22;9940;47.252;8.696;2023-03-14T20:02:55;7.70;99.90
19588;DHT22;9940;47.252;8.696;2023-03-14T20:05:22;7.70;99.90
19588;DHT22;9940;47.252;8.696;2023-03-14T20:07:53;7.70;99.90
19588;DHT22;9940;47.252;8.696;2023-03-14T20:10:20;7.70;99.90
19588;DHT22;9940;47.252;8.696;2023-03-14T20:12:49;7.70;99.90
19588;DHT22;9940;47.252;8.696;2023-03-14T20:15:15;7.70;99.90
19588;DHT22;9940;47.252;8.696;2023-03-14T20:17:49;7.70;99.90
19588;DHT22;9940;47.252;8.696;2023-03-14T20:20:17;7.60;99.90
19588;DHT22;9940;47.252;8.696;2023-03-14T20:22:43;7.70;99.90
19588;DHT22;9940;47.252;8.696;2023-03-14T20:25:12;7.60;99.90
19588;DHT22;9940;47.252;8.696;2023-03-14T20:27:41;7.60;99.90
19588;DHT22;9940;47.252;8.696;2023-03-14T20:30:10;7.60;99.90
19588;DHT22;9940;47.252;8.696;2023-03-14T20:32:39;7.60;99.90
19588;DHT22;9940;47.252;8.696;2023-03-14T20:35:09;7.50;99.90
19588;DHT22;9940;47.252;8.696;2023-03-14T20:37:36;7.50;99.90
19588;DHT22;9940;47.252;8.696;2023-03-14T20:40:02;7.50;99.90